Portada
METAR-TAF:

METAR-TAF

Aeroports :

Pensacola Regional Airport

Pensacola, Florida, Estats Units d'Amèrica

latitud: 30-28-41N, longitud: 087-11-13W, altitud: 36 m

Observació

L'informe es va fer fa 15 minuts, a les 05:53 UTC
Vent 4 kt del Nord
Temperatura 26°C
Humitat 84%
Pressió 1016 hPa
Visibilitat: 16.1 km
Cel clar

METAR: KPNS 160553Z AUTO 01004KT 10SM CLR 26/23 A2999 RMK AO2 SLP156 T02610233 10289 20250 403500250 58004 $

Hora: 01:08 (06:08 UTC)

Pronòstic

L'informe es va fer fa 48 minuts, a les 05:20 UTC
Pronòstic vàlid del 16 a les 06 UTC al 17 a les 06 UTC
Vent 4 kt del Nord/Nord-Est
Visibilitat: 10 km
Núvols disperses a una alçada de 15000 ft
Cel cobert a una alçada de 25000 ft
A partir de les 16 a les 1500 UTC
Vent 6 kt del Est
Visibilitat: 10 km
Escasses núvols a una alçada de 5000 ft
Cel ennuvolat a una alçada de 25000 ft

TAF: KPNS 160520Z 1606/1706 03004KT P6SM SCT150 OVC250 FM161500 08006KT P6SM FEW050 BKN250

Observacions i pronòstics meteorològics de més de 4000 aeroports (METAR i TAF).

Les estacions disponibles són els punts grocs i vermells al mapa.

Posi el ratolí al punt desitjat per veure el nom de l'estació.

Feu clic per veure les observacions i els pronòstics meteorològics.

Per canviar el mapa: feu clic els botons verds amb una creu de color negre per apropar; al botó verd amb un guió per allunyar la imatge; o en les fletxes verdes per a mapes adjacents.


METAR-TAF: